EHWO Airport Information

Runway Information
Runway 07 Length 7996 ft width 148 ft
Elevation 39 ft Threshold 0 ft Heading 69
Runway 25 Length 7996 ft Width 148 ft
Elevation 63 ft Threshold 0 ft Heading 249
Airport Frequencies
Type APP Name RAPCON WES Frequency 123.575 MHZ
Type ARR Name ARRIVAL Frequency 123.575 MHZ
Type TWR Name TWR Frequency 118.5 MHZ
Airport Navaids
Type TACAN Name Woensdrecht Frequency 115000 KHZ
Airport Weather Information & NOTAM
ADDS - METARS form results

(0620 UTC 19 August 2018)
 
METAR text: EHWO 190555Z AUTO 21006KT 190V260 9999 OVC033 16/15 Q1021 BLU
Conditions at: EHWO (WOENSDRECHT RNLA, NL) observed 0555 UTC 19 August 2018
Temperature: 16.0°C (61°F)
Dewpoint: 15.0°C (59°F) [RH = 94%]
Pressure (altimeter): 30.15 inches Hg (1021.0 mb)
Winds: from the SSW (210 degrees) at 7 MPH (6 knots; 3.1 m/s)
Visibility: 6 or more miles (10+ km)
Ceiling: 3300 feet AGL
Clouds: overcast cloud deck at 3300 feet AGL
Weather: no significant weather observed at this time

METAR text: EHWO 190525Z AUTO 21005KT 160V250 9999 OVC033 16/15 Q1021 BLU
Conditions at: EHWO (WOENSDRECHT RNLA, NL) observed 0525 UTC 19 August 2018
Temperature: 16.0°C (61°F)
Dewpoint: 15.0°C (59°F) [RH = 94%]
Pressure (altimeter): 30.15 inches Hg (1021.0 mb)
Winds: from the SSW (210 degrees) at 6 MPH (5 knots; 2.6 m/s)
Visibility: 6 or more miles (10+ km)
Ceiling: 3300 feet AGL
Clouds: overcast cloud deck at 3300 feet AGL
Weather: no significant weather observed at this time